Time;durP1;ratioP1;P1;durP2;ratioP2;P2;SDS_P1;SDS_P2;PMS_P1;PMS_P2;Temp;Humidity;BMP_temperature;BMP_pressure;BME280_temperature;BME280_humidity;BME280_pressure;Samples;Min_cycle;Max_cycle;Signal;HPM_P1;HPM_P2
2022/01/28 05:25:47;;;;;;;6.35;4.22;;;;;;;2.97;81.27;100588.75;5588014;31;34211;-83
2022/01/28 05:28:50;;;;;;;6.55;4.47;;;;;;;2.45;82.77;100603.41;5588525;31;33711;-84
2022/01/28 05:31:53;;;;;;;4.80;3.55;;;;;;;2.47;82.82;100604.25;5588125;31;34142;-83
2022/01/28 05:34:56;;;;;;;4.10;3.17;;;;;;;2.53;82.17;100606.78;5588150;32;35340;-84
2022/01/28 05:37:59;;;;;;;3.97;2.92;;;;;;;2.64;82.06;100592.69;5590891;31;34773;-88
2022/01/28 05:41:01;;;;;;;4.12;3.37;;;;;;;2.80;80.98;100603.84;5588267;32;33556;-88
2022/01/28 05:44:05;;;;;;;3.80;3.08;;;;;;;2.75;81.15;100617.00;5590513;31;34034;-89
2022/01/28 05:47:13;;;;;;;3.33;2.78;;;;;;;2.79;81.17;100626.56;5592753;31;34767;-87
2022/01/28 05:50:16;;;;;;;3.22;2.80;;;;;;;2.80;81.29;100628.28;5596023;31;34798;-84
2022/01/28 05:53:19;;;;;;;3.83;3.12;;;;;;;2.90;80.95;100639.50;5596971;31;34986;-84
2022/01/28 05:56:21;;;;;;;4.47;3.30;;;;;;;2.95;80.82;100631.56;5590027;31;34680;-84
2022/01/28 05:59:24;;;;;;;3.95;3.10;;;;;;;2.91;80.94;100630.75;5587900;32;34113;-84
2022/01/28 06:02:30;;;;;;;4.68;3.60;;;;;;;2.91;81.03;100648.25;5587917;31;34323;-84
2022/01/28 06:05:34;;;;;;;4.90;3.42;;;;;;;2.89;81.24;100652.62;5587553;31;34411;-84
2022/01/28 06:08:36;;;;;;;4.03;3.20;;;;;;;2.91;81.12;100651.72;5588259;31;33950;-84
2022/01/28 06:11:39;;;;;;;3.92;2.90;;;;;;;3.03;80.61;100644.59;5588227;31;34239;-84
2022/01/28 06:14:42;;;;;;;4.20;3.30;;;;;;;2.99;80.55;100646.38;5587668;31;33804;-84
2022/01/28 06:17:45;;;;;;;3.35;3.05;;;;;;;3.12;80.11;100647.06;5588008;31;34181;-84
2022/01/28 06:20:48;;;;;;;3.53;3.17;;;;;;;3.04;80.37;100646.31;5588279;31;34493;-84
2022/01/28 06:23:52;;;;;;;5.40;2.83;;;;;;;3.02;80.37;100658.59;5588410;32;34372;-84
2022/01/28 06:26:55;;;;;;;4.15;3.17;;;;;;;3.06;80.37;100679.47;5588191;32;33760;-84
2022/01/28 06:29:58;;;;;;;5.75;3.00;;;;;;;3.16;79.96;100679.38;5588872;31;34781;-84
2022/01/28 06:33:00;;;;;;;4.22;3.10;;;;;;;3.26;79.39;100675.72;5575319;32;34678;-84
2022/01/28 06:36:04;;;;;;;3.78;3.10;;;;;;;3.35;79.23;100687.81;5566636;32;33686;-84
2022/01/28 06:39:06;;;;;;;3.70;2.83;;;;;;;3.43;78.50;100687.72;5570999;31;34337;-84
2022/01/28 06:42:09;;;;;;;4.05;2.90;;;;;;;3.62;77.60;100683.06;5579932;31;34611;-84
2022/01/28 06:45:12;;;;;;;3.22;2.83;;;;;;;3.70;76.64;100688.16;5565964;32;34240;-83
2022/01/28 06:48:16;;;;;;;4.05;2.80;;;;;;;3.75;76.26;100689.84;5567102;31;34114;-83
2022/01/28 06:51:19;;;;;;;4.78;2.75;;;;;;;3.80;75.80;100689.75;5571741;32;35043;-83
2022/01/28 06:54:21;;;;;;;3.37;2.50;;;;;;;3.85;75.52;100681.78;5563972;31;33747;-83
2022/01/28 06:57:24;;;;;;;3.00;2.60;;;;;;;3.96;74.59;100686.84;5573038;32;33699;-84
2022/01/28 07:00:27;;;;;;;4.37;2.70;;;;;;;3.93;74.07;100668.53;5554322;32;33942;-83
2022/01/28 07:03:30;;;;;;;4.87;2.47;;;;;;;3.78;74.43;100671.41;5562258;32;34220;-83
2022/01/28 07:06:33;;;;;;;2.72;2.40;;;;;;;3.84;74.06;100670.44;5565388;32;33947;-84
2022/01/28 07:09:36;;;;;;;5.93;2.58;;;;;;;3.87;73.52;100665.13;5567899;32;34189;-84
2022/01/28 07:12:38;;;;;;;2.75;2.37;;;;;;;3.84;72.95;100656.44;5572806;32;34297;-84
2022/01/28 07:15:42;;;;;;;5.25;2.40;;;;;;;3.75;72.97;100652.22;5565862;32;34522;-83
2022/01/28 07:18:45;;;;;;;2.67;2.22;;;;;;;3.75;72.53;100660.09;5575826;32;33964;-82
2022/01/28 07:21:48;;;;;;;3.85;2.20;;;;;;;3.83;72.24;100675.72;5576602;32;34053;-84
2022/01/28 07:24:51;;;;;;;2.30;1.98;;;;;;;3.70;72.31;100677.66;5561914;32;34328;-86
2022/01/28 07:27:54;;;;;;;3.80;2.55;;;;;;;3.72;72.29;100686.41;5554886;32;34257;-85
2022/01/28 07:30:57;;;;;;;3.15;2.00;;;;;;;3.83;71.97;100680.97;5572445;32;33916;-85
2022/01/28 07:33:59;;;;;;;5.15;2.12;;;;;;;3.84;71.60;100677.44;5573158;32;34179;-84
2022/01/28 07:37:04;;;;;;;3.70;2.20;;;;;;;3.92;71.20;100683.41;5568302;32;34355;-85
2022/01/28 07:40:07;;;;;;;5.43;2.37;;;;;;;3.88;70.72;100676.50;5562045;32;34709;-85
2022/01/28 07:43:11;;;;;;;2.95;2.20;;;;;;;4.06;69.96;100683.19;5555800;32;34346;-85
2022/01/28 07:46:15;;;;;;;3.08;2.05;;;;;;;4.00;69.75;100676.28;5571433;32;34313;-84
2022/01/28 07:49:18;;;;;;;4.18;1.95;;;;;;;4.10;69.12;100652.47;5572777;32;35080;-86
2022/01/28 07:52:21;;;;;;;4.43;2.10;;;;;;;4.06;68.16;100664.81;5573763;32;34180;-87
2022/01/28 07:55:26;;;;;;;5.75;2.10;;;;;;;4.16;67.31;100679.50;5573958;32;34868;-85
2022/01/28 07:58:32;;;;;;;3.22;2.15;;;;;;;4.31;66.25;100677.47;5572755;31;33680;-92
2022/01/28 08:01:35;;;;;;;3.70;1.73;;;;;;;4.34;66.44;100680.06;5567192;31;34730;-90
2022/01/28 08:04:39;;;;;;;3.62;1.87;;;;;;;4.28;66.05;100674.94;5574709;32;34167;-86
2022/01/28 08:07:43;;;;;;;1.85;1.50;;;;;;;4.42;65.75;100683.41;5573944;32;34025;-85
2022/01/28 08:10:47;;;;;;;6.78;1.70;;;;;;;4.69;63.31;100672.38;5567837;32;33916;-86
2022/01/28 08:13:52;;;;;;;4.15;1.95;;;;;;;4.77;62.93;100706.41;5557934;32;34883;-85
2022/01/28 08:16:55;;;;;;;3.40;2.12;;;;;;;4.65;63.35;100700.50;5568309;32;34691;-84
2022/01/28 08:19:59;;;;;;;5.22;1.83;;;;;;;4.45;64.11;100695.63;5572026;32;33664;-85
2022/01/28 08:23:03;;;;;;;3.87;1.83;;;;;;;4.62;63.35;100697.91;5569416;32;34057;-84
2022/01/28 08:26:06;;;;;;;8.07;2.00;;;;;;;4.58;63.32;100670.81;5572617;32;34440;-85
2022/01/28 08:29:08;;;;;;;12.73;2.10;;;;;;;4.53;63.13;100671.84;5574475;32;34091;-85
2022/01/28 08:32:11;;;;;;;4.62;1.37;;;;;;;4.62;62.86;100673.41;5580031;31;34258;-86
2022/01/28 08:35:15;;;;;;;5.72;1.60;;;;;;;4.53;62.57;100659.53;5574137;32;34300;-85
2022/01/28 08:38:26;;;;;;;4.30;1.67;;;;;;;4.53;62.41;100659.53;5560341;32;35209;-85
2022/01/28 08:41:31;;;;;;;4.37;1.60;;;;;;;4.57;61.95;100660.34;5553884;32;34099;-84
2022/01/28 08:44:34;;;;;;;4.25;1.70;;;;;;;4.75;60.65;100648.59;5562387;32;33649;-84
2022/01/28 08:47:37;;;;;;;3.67;1.55;;;;;;;4.66;60.51;100667.19;5573928;32;34765;-85
2022/01/28 08:50:40;;;;;;;3.03;1.30;;;;;;;5.10;61.32;100654.88;5571941;32;34362;-85
2022/01/28 08:53:43;;;;;;;4.37;1.60;;;;;;;5.41;60.10;100663.81;5568464;32;33940;-84
2022/01/28 08:56:46;;;;;;;15.00;2.97;;;;;;;5.48;57.96;100678.53;5567787;32;33946;-85
2022/01/28 09:00:12;;;;;;;5.93;2.87;;;;;;;5.29;57.14;100671.97;5571045;31;34065;-85
2022/01/28 09:03:16;;;;;;;7.68;3.08;;;;;;;5.38;57.03;100690.19;5568485;32;34299;-85
2022/01/28 09:06:19;;;;;;;5.00;2.55;;;;;;;5.35;56.86;100687.63;5562367;32;33936;-84
2022/01/28 09:09:22;;;;;;;9.15;1.83;;;;;;;5.69;56.60;100684.19;5574159;32;34184;-84
2022/01/28 09:15:36;;;;;;;1.85;1.00;;;;;;;5.88;53.50;100671.44;5573488;32;33991;-87
2022/01/28 09:18:39;;;;;;;4.82;1.40;;;;;;;6.33;52.06;100654.47;5571957;31;34080;-86
2022/01/28 09:21:41;;;;;;;17.23;1.90;;;;;;;7.12;49.90;100655.75;5570251;32;34226;-85
2022/01/28 09:24:44;;;;;;;5.97;0.88;;;;;;;7.74;47.83;100653.75;5571661;32;33460;-84
2022/01/28 09:27:47;;;;;;;4.25;1.45;;;;;;;8.04;47.04;100680.06;5560717;32;33608;-84
2022/01/28 09:30:50;;;;;;;14.77;1.42;;;;;;;8.21;46.28;100694.47;5574234;32;34371;-85
2022/01/28 09:33:53;;;;;;;3.05;0.95;;;;;;;8.41;46.41;100692.91;5575100;32;34040;-84
2022/01/28 09:36:57;;;;;;;6.32;1.37;;;;;;;9.03;44.42;100711.84;5574292;32;33977;-85
2022/01/28 09:40:00;;;;;;;27.80;2.17;;;;;;;8.99;45.19;100686.41;5575864;32;34113;-85
2022/01/28 09:43:07;;;;;;;4.20;1.10;;;;;;;10.12;42.40;100681.03;5575641;32;34175;-89
2022/01/28 09:46:10;;;;;;;9.27;1.52;;;;;;;11.07;40.33;100663.59;5575820;32;34447;-88
2022/01/28 09:49:13;;;;;;;10.23;1.60;;;;;;;10.64;40.31;100658.47;5576715;32;34323;-89
2022/01/28 09:52:16;;;;;;;12.55;1.42;;;;;;;10.25;40.68;100676.03;5574553;32;33945;-85
2022/01/28 09:55:21;;;;;;;4.95;1.20;;;;;;;9.83;41.55;100683.12;5573121;31;33586;-84
2022/01/28 09:58:24;;;;;;;5.68;1.10;;;;;;;9.49;42.13;100695.06;5567815;32;34120;-85
2022/01/28 10:01:27;;;;;;;3.53;1.05;;;;;;;9.01;42.82;100680.13;5562379;31;35015;-83
2022/01/28 10:04:31;;;;;;;5.72;1.33;;;;;;;8.36;45.15;100693.94;5573777;32;33152;-84
2022/01/28 10:07:33;;;;;;;15.02;1.55;;;;;;;8.80;44.12;100692.41;5571781;31;33622;-85
2022/01/28 10:10:46;;;;;;;13.07;1.60;;;;;;;8.58;44.20;100703.78;5576557;31;35813;-85
2022/01/28 10:16:58;;;;;;;8.75;1.90;;;;;;;7.27;45.92;100704.53;5581266;31;34227;-84
2022/01/28 10:20:07;;;;;;;3.20;1.30;;;;;;;6.85;47.18;100740.06;5582127;32;33699;-84
2022/01/28 10:23:12;;;;;;;8.50;1.30;;;;;;;6.90;47.41;100742.56;5585250;32;34830;-84
2022/01/28 10:26:15;;;;;;;3.40;1.12;;;;;;;6.32;49.04;100742.34;5582765;32;35217;-84
2022/01/28 10:29:24;;;;;;;4.93;1.10;;;;;;;6.19;49.68;100736.53;5577449;32;35504;-84
2022/01/28 10:32:28;;;;;;;4.25;1.55;;;;;;;6.17;50.05;100705.84;5576912;32;34506;-84
2022/01/28 10:35:32;;;;;;;4.68;1.73;;;;;;;6.22;50.01;100716.28;5575565;32;34644;-84
2022/01/28 10:38:37;;;;;;;4.00;1.60;;;;;;;7.40;48.43;100720.88;5576726;32;34423;-84
2022/01/28 10:41:54;;;;;;;6.10;1.30;;;;;;;7.31;46.49;100700.91;5569780;32;34236;-84
2022/01/28 10:45:00;;;;;;;2.58;0.93;;;;;;;7.06;46.97;100712.19;5565813;32;34405;-85
2022/01/28 10:48:07;;;;;;;5.65;1.27;;;;;;;7.16;48.35;100739.19;5574264;32;34033;-84
2022/01/28 10:51:10;;;;;;;9.40;1.30;;;;;;;6.64;47.71;100699.34;5560371;32;34196;-83
2022/01/28 10:54:15;;;;;;;4.10;0.98;;;;;;;6.69;46.92;100705.34;5558076;32;34082;-84
2022/01/28 10:57:18;;;;;;;2.05;0.80;;;;;;;6.62;46.28;100702.03;5558246;32;34027;-83
2022/01/28 11:00:21;;;;;;;3.05;0.88;;;;;;;6.54;45.96;100711.91;5557217;32;34225;-83
2022/01/28 11:03:28;;;;;;;3.72;1.27;;;;;;;6.57;46.07;100714.47;5566134;32;34678;-84
2022/01/28 11:06:31;;;;;;;6.78;1.15;;;;;;;6.74;45.94;100733.31;5559041;32;35117;-84
2022/01/28 11:09:34;;;;;;;4.57;1.37;;;;;;;7.22;44.07;100711.72;5558787;32;34116;-83
2022/01/28 11:12:37;;;;;;;10.43;2.28;;;;;;;7.01;44.26;100712.31;5559318;32;33837;-83
2022/01/28 11:15:40;;;;;;;2.83;1.00;;;;;;;6.64;44.99;100717.81;5559311;32;33987;-83
2022/01/28 11:18:43;;;;;;;4.28;1.10;;;;;;;6.90;45.05;100727.63;5567149;32;34367;-88
2022/01/28 11:21:52;;;;;;;5.40;2.00;;;;;;;6.73;45.48;100752.69;5561154;32;33979;-85
2022/01/28 11:25:35;;;;;;;5.18;2.08;;;;;;;6.36;46.70;100742.25;5558495;32;34401;-84
2022/01/28 11:29:02;;;;;;;3.20;1.20;;;;;;;6.19;47.80;100743.56;5565245;32;34346;-83
2022/01/28 11:32:15;;;;;;;7.00;1.25;;;;;;;6.13;48.50;100755.13;5557121;32;34957;-83
2022/01/28 11:35:21;;;;;;;8.63;1.77;;;;;;;5.87;49.32;100742.56;5571657;32;34205;-83
2022/01/28 11:38:24;;;;;;;12.75;1.40;;;;;;;5.89;49.70;100728.44;5572287;32;33706;-83
2022/01/28 11:41:27;;;;;;;5.60;1.60;;;;;;;5.95;50.05;100735.34;5571785;32;34037;-83
2022/01/28 11:44:59;;;;;;;4.22;1.40;;;;;;;5.90;50.67;100732.81;5566391;32;36051;-84
2022/01/28 11:48:09;;;;;;;7.43;1.60;;;;;;;6.11;50.44;100741.13;5574879;32;34053;-83
2022/01/28 11:51:15;;;;;;;1.90;0.88;;;;;;;5.96;50.40;100741.47;5571225;32;33830;-84
2022/01/28 11:54:24;;;;;;;8.48;1.75;;;;;;;6.20;50.24;100738.25;5573391;32;35450;-83
2022/01/28 11:57:28;;;;;;;2.65;1.40;;;;;;;6.38;50.95;100748.38;5574317;32;35229;-83
2022/01/28 12:00:36;;;;;;;4.95;1.37;;;;;;;6.32;51.16;100765.19;5572375;32;34513;-83
2022/01/28 12:03:39;;;;;;;3.47;1.30;;;;;;;6.53;50.25;100747.09;5561880;32;34094;-89
2022/01/28 12:06:42;;;;;;;2.72;1.12;;;;;;;5.79;51.73;100761.19;5568276;31;34696;-89
2022/01/28 12:09:52;;;;;;;3.50;1.40;;;;;;;5.85;52.10;100778.59;5574583;32;33833;-85
2022/01/28 12:16:10;;;;;;;7.00;1.37;;;;;;;5.62;53.46;100777.34;5577089;31;34276;-85
2022/01/28 12:19:17;;;;;;;11.73;1.48;;;;;;;5.63;53.69;100771.22;5575780;31;33915;-83
2022/01/28 12:22:20;;;;;;;5.90;1.62;;;;;;;5.74;53.59;100766.53;5571024;31;32874;-83
2022/01/28 12:25:35;;;;;;;1.73;1.02;;;;;;;5.74;53.42;100770.97;5569494;32;34109;-84
2022/01/28 12:28:45;;;;;;;3.92;1.73;;;;;;;5.73;53.61;100777.97;5574555;32;34052;-83
2022/01/28 12:31:56;;;;;;;3.80;1.10;;;;;;;5.80;53.68;100774.28;5567997;32;34233;-83
2022/01/28 12:34:59;;;;;;;4.10;1.52;;;;;;;5.86;53.86;100765.41;5566592;32;34378;-84
2022/01/28 12:38:03;;;;;;;4.47;2.12;;;;;;;5.80;54.20;100786.59;5572632;32;33574;-84
2022/01/28 12:41:08;;;;;;;6.85;2.30;;;;;;;5.74;54.61;100770.97;5567176;31;34835;-83
2022/01/28 12:44:14;;;;;;;6.75;1.80;;;;;;;5.72;54.60;100770.09;5562776;31;35018;-84
2022/01/28 12:47:17;;;;;;;4.18;1.50;;;;;;;5.61;54.97;100760.72;5566580;32;34345;-83
2022/01/28 12:50:20;;;;;;;4.55;1.35;;;;;;;5.44;55.49;100773.38;5570546;32;34342;-84
2022/01/28 12:53:35;;;;;;;8.57;1.52;;;;;;;5.50;55.14;100760.97;5564921;32;34211;-83
2022/01/28 12:56:40;;;;;;;6.15;1.55;;;;;;;5.68;54.56;100761.41;5571742;32;33718;-83
2022/01/28 12:59:45;;;;;;;3.12;1.70;;;;;;;5.47;55.28;100757.50;5552455;32;33958;-83
2022/01/28 13:02:51;;;;;;;4.93;1.92;;;;;;;5.47;55.24;100768.03;5561492;31;33918;-83
2022/01/28 13:05:57;;;;;;;4.65;1.70;;;;;;;5.56;55.22;100766.97;5567211;31;33887;-84
2022/01/28 13:09:10;;;;;;;6.07;1.27;;;;;;;5.75;54.17;100786.72;5580105;31;35085;-84
2022/01/28 13:12:25;;;;;;;10.95;2.12;;;;;;;5.98;53.90;100781.81;5573986;32;34222;-85
2022/01/28 13:15:27;;;;;;;5.70;1.23;;;;;;;6.34;52.52;100782.69;5563668;31;35148;-89
2022/01/28 13:18:30;;;;;;;4.25;1.60;;;;;;;6.11;53.15;100785.91;5570407;32;34214;-86
2022/01/28 13:21:34;;;;;;;3.45;1.73;;;;;;;6.46;52.41;100781.53;5569737;32;34634;-84
2022/01/28 13:24:38;;;;;;;3.53;1.37;;;;;;;6.44;52.04;100782.47;5570651;32;33840;-83
2022/01/28 13:27:43;;;;;;;4.68;1.42;;;;;;;6.58;51.64;100785.59;5561375;32;34459;-83
2022/01/28 13:30:56;;;;;;;5.25;1.67;;;;;;;6.49;52.20;100783.19;5563836;32;34505;-83
2022/01/28 13:33:59;;;;;;;5.90;1.40;;;;;;;6.31;52.65;100793.31;5556716;32;35137;-84
2022/01/28 13:37:02;;;;;;;8.77;1.37;;;;;;;6.37;52.54;100791.41;5568416;31;34746;-84
2022/01/28 13:40:32;;;;;;;4.65;1.70;;;;;;;6.63;51.64;100792.53;5572320;32;33680;-84
2022/01/28 13:43:40;;;;;;;6.20;1.60;;;;;;;6.38;52.12;100794.00;5562894;32;33881;-84
2022/01/28 13:46:48;;;;;;;2.45;1.33;;;;;;;6.43;52.36;100809.69;5562564;32;34244;-84
2022/01/28 13:49:58;;;;;;;2.37;1.58;;;;;;;6.29;52.59;100810.06;5567050;32;34254;-84
2022/01/28 13:53:20;;;;;;;2.95;1.37;;;;;;;6.28;52.72;100805.72;5565171;31;33764;-84
2022/01/28 13:56:24;;;;;;;4.25;1.45;;;;;;;5.77;54.03;100818.25;5575552;32;34079;-83
2022/01/28 13:59:30;;;;;;;9.48;1.40;;;;;;;5.66;54.55;100814.13;5574831;32;34065;-83
2022/01/28 14:02:39;;;;;;;3.37;1.48;;;;;;;5.64;54.65;100812.41;5566728;32;34001;-83
2022/01/28 14:05:50;;;;;;;6.00;1.87;;;;;;;5.51;54.96;100819.69;5554145;32;34380;-84
2022/01/28 14:09:16;;;;;;;3.37;1.95;;;;;;;5.48;55.56;100811.88;5559090;31;34477;-90
2022/01/28 14:12:32;;;;;;;4.87;2.67;;;;;;;5.34;55.92;100817.44;5569571;31;35320;-85
2022/01/28 14:15:48;;;;;;;7.85;2.62;;;;;;;5.32;56.17;100813.97;5571103;32;34220;-84
2022/01/28 14:18:52;;;;;;;3.58;2.10;;;;;;;5.44;55.99;100816.34;5573001;32;34965;-83
2022/01/28 14:21:55;;;;;;;3.80;1.87;;;;;;;5.33;56.56;100818.34;5570949;32;34560;-84
2022/01/28 14:24:58;;;;;;;8.20;2.03;;;;;;;5.13;57.04;100825.72;5574059;32;33828;-84
2022/01/28 14:28:36;;;;;;;4.37;1.60;;;;;;;5.11;57.05;100821.38;5579398;32;33858;-85
2022/01/28 14:31:36;;;;;;;11.38;2.15;;;;;;;5.23;56.86;100829.03;5577438;32;34486;-84
2022/01/28 14:34:39;;;;;;;7.07;1.80;;;;;;;5.17;57.03;100821.28;5572170;32;34522;-83
2022/01/28 14:37:42;;;;;;;6.45;1.48;;;;;;;5.26;57.01;100820.22;5572636;32;34824;-84
2022/01/28 14:40:44;;;;;;;6.65;1.90;;;;;;;5.16;57.32;100814.28;5573229;32;34171;-84
2022/01/28 14:43:47;;;;;;;7.75;2.05;;;;;;;5.28;56.75;100821.03;5574040;32;34389;-83
2022/01/28 14:46:50;;;;;;;9.50;2.10;;;;;;;5.30;56.56;100828.91;5573831;32;35124;-83
2022/01/28 14:49:53;;;;;;;13.10;2.60;;;;;;;5.20;57.00;100818.59;5560163;32;33729;-84
2022/01/28 14:52:56;;;;;;;10.57;2.95;;;;;;;5.12;57.11;100821.38;5571284;32;34821;-83
2022/01/28 14:55:58;;;;;;;9.98;2.50;;;;;;;5.16;57.02;100829.19;5571953;32;34980;-83
2022/01/28 14:59:02;;;;;;;6.28;1.95;;;;;;;5.12;57.26;100831.00;5567559;32;34130;-84
2022/01/28 15:02:07;;;;;;;4.28;2.00;;;;;;;5.10;57.16;100822.28;5572177;32;34083;-84
2022/01/28 15:05:11;;;;;;;7.07;2.50;;;;;;;5.01;57.46;100843.50;5572002;32;34134;-83
2022/01/28 15:08:13;;;;;;;4.68;2.40;;;;;;;5.01;57.71;100849.63;5561076;32;34576;-83
2022/01/28 15:11:59;;;;;;;3.47;1.87;;;;;;;4.91;58.13;100866.47;5552465;32;34668;-84
2022/01/28 15:14:42;;;;;;;6.00;1.80;;;;;;;4.97;58.11;100872.50;5558629;32;35237;-83
2022/01/28 15:17:45;;;;;;;6.72;1.87;;;;;;;5.00;58.20;100879.47;5570153;32;33797;-84
2022/01/28 15:20:48;;;;;;;4.15;2.10;;;;;;;4.81;58.95;100889.44;5552984;32;34032;-84
2022/01/28 15:23:51;;;;;;;3.45;1.65;;;;;;;4.76;59.07;100893.88;5555519;32;34329;-89
2022/01/28 15:26:56;;;;;;;4.00;1.83;;;;;;;4.72;59.28;100904.47;5552309;32;33982;-89
2022/01/28 15:30:26;;;;;;;2.92;1.58;;;;;;;4.73;59.43;100931.63;5562895;32;33578;-88
2022/01/28 15:36:50;;;;;;;5.50;1.95;;;;;;;4.66;59.64;100908.94;5552172;32;34324;-83
2022/01/28 15:39:53;;;;;;;5.10;2.00;;;;;;;4.60;59.89;100899.41;5552433;32;33896;-83
2022/01/28 15:43:00;;;;;;;4.82;2.00;;;;;;;4.73;59.39;100902.72;5552690;32;33903;-83
2022/01/28 15:46:04;;;;;;;3.08;1.80;;;;;;;4.56;60.07;100879.34;5552894;32;34429;-84
2022/01/28 15:49:09;;;;;;;4.72;2.20;;;;;;;4.48;60.47;100891.72;5551831;32;33890;-84
2022/01/28 15:52:13;;;;;;;4.85;1.70;;;;;;;4.37;60.91;100911.16;5553116;32;33971;-84
2022/01/28 15:55:16;;;;;;;7.70;2.28;;;;;;;4.58;60.15;100904.69;5553586;32;34246;-83
2022/01/28 15:58:19;;;;;;;4.18;2.12;;;;;;;4.37;60.87;100905.91;5552982;32;34658;-82
2022/01/28 16:01:24;;;;;;;4.22;1.83;;;;;;;4.37;60.81;100895.38;5553062;32;34619;-83
2022/01/28 16:04:27;;;;;;;5.78;1.80;;;;;;;4.37;60.84;100913.78;5552622;32;34282;-83
2022/01/28 16:07:30;;;;;;;4.62;1.90;;;;;;;4.34;60.82;100918.22;5553181;32;34235;-83
2022/01/28 16:10:41;;;;;;;3.40;2.30;;;;;;;4.41;60.58;100923.34;5553609;32;33940;-83
2022/01/28 16:17:27;;;;;;;3.20;2.10;;;;;;;4.33;60.84;100920.00;5563413;32;34793;-83
2022/01/28 16:20:30;;;;;;;5.12;2.58;;;;;;;4.22;61.11;100929.78;5552534;32;33977;-83
2022/01/28 16:23:33;;;;;;;7.40;2.00;;;;;;;4.13;61.57;100921.13;5551479;32;35438;-83
2022/01/28 16:26:36;;;;;;;2.97;2.25;;;;;;;4.15;61.69;100932.50;5551848;32;35221;-88
